createdAt,value
2017-10-19T00:01:14.229Z,97.50
2017-10-19T00:03:41.843Z,97.50
2017-10-19T00:06:09.429Z,97.40
2017-10-19T00:08:37.044Z,97.60
2017-10-19T00:11:04.713Z,97.40
2017-10-19T00:13:32.374Z,97.40
2017-10-19T00:15:59.998Z,97.30
2017-10-19T00:18:27.614Z,97.30
2017-10-19T00:20:55.210Z,97.20
2017-10-19T00:23:22.831Z,97.00
2017-10-19T00:25:50.427Z,96.90
2017-10-19T00:28:18.090Z,96.90
2017-10-19T00:30:45.689Z,97.10
2017-10-19T00:33:13.383Z,96.80
2017-10-19T00:35:41.785Z,97.00
2017-10-19T00:38:09.393Z,97.00
2017-10-19T00:40:36.995Z,96.90
2017-10-19T00:43:04.619Z,97.00
2017-10-19T00:45:32.982Z,97.00
2017-10-19T00:48:00.626Z,96.90
2017-10-19T00:50:28.450Z,96.80
2017-10-19T00:52:56.838Z,96.90
2017-10-19T00:55:24.504Z,96.90
2017-10-19T00:57:53.061Z,96.70
2017-10-19T01:00:20.696Z,96.60
2017-10-19T01:02:48.325Z,96.80
2017-10-19T01:05:15.966Z,97.00
2017-10-19T01:07:44.308Z,97.10
2017-10-19T01:10:12.517Z,97.10
2017-10-19T01:12:40.125Z,97.20
2017-10-19T01:15:08.450Z,97.30
2017-10-19T01:17:36.818Z,97.30
2017-10-19T01:20:04.409Z,97.30
2017-10-19T01:22:32.066Z,97.50
2017-10-19T01:24:59.661Z,97.40
2017-10-19T01:27:27.261Z,97.40
2017-10-19T01:29:54.945Z,97.40
2017-10-19T01:32:22.529Z,97.20
2017-10-19T01:34:50.957Z,97.20
2017-10-19T01:37:18.561Z,97.20
2017-10-19T01:39:46.199Z,97.30
2017-10-19T01:42:13.822Z,97.20
2017-10-19T01:44:41.433Z,97.20
2017-10-19T01:47:09.139Z,97.30
2017-10-19T01:49:48.622Z,97.10
2017-10-19T01:52:16.322Z,97.20
2017-10-19T01:54:43.963Z,97.10
2017-10-19T01:57:11.601Z,97.10
2017-10-19T01:59:39.256Z,97.20
2017-10-19T02:02:06.839Z,97.00
2017-10-19T02:04:34.474Z,97.00
2017-10-19T02:07:02.062Z,96.80
2017-10-19T02:09:29.645Z,96.80
2017-10-19T02:11:57.259Z,96.70
2017-10-19T02:14:24.924Z,97.00
2017-10-19T02:16:52.596Z,97.00
2017-10-19T02:19:20.509Z,97.10
2017-10-19T02:21:48.120Z,97.10
2017-10-19T02:24:15.750Z,97.10
2017-10-19T02:26:43.352Z,97.00
2017-10-19T02:29:10.957Z,96.90
2017-10-19T02:31:38.555Z,96.80
2017-10-19T02:34:06.224Z,97.10
2017-10-19T02:36:33.839Z,96.90
2017-10-19T02:39:02.183Z,97.00
2017-10-19T02:41:29.838Z,97.00
2017-10-19T02:43:58.927Z,97.10
2017-10-19T02:46:26.558Z,97.10
2017-10-19T02:48:54.476Z,96.70
2017-10-19T02:51:22.071Z,96.80
2017-10-19T02:53:49.677Z,96.90
2017-10-19T02:56:17.285Z,96.90
2017-10-19T02:58:44.949Z,96.80
2017-10-19T03:01:12.948Z,96.80
2017-10-19T03:03:40.568Z,96.70
2017-10-19T03:06:08.195Z,96.70
2017-10-19T03:08:35.826Z,96.70
2017-10-19T03:11:03.455Z,96.70
2017-10-19T03:13:31.056Z,96.80
2017-10-19T03:15:58.696Z,96.80
2017-10-19T03:18:27.178Z,96.90
2017-10-19T03:20:54.813Z,96.80
2017-10-19T03:23:23.243Z,97.10
2017-10-19T03:25:50.853Z,97.00
2017-10-19T03:28:19.199Z,97.30
2017-10-19T03:30:46.819Z,97.30
2017-10-19T03:33:14.495Z,97.30
2017-10-19T03:35:42.093Z,97.10
2017-10-19T03:38:09.932Z,97.20
2017-10-19T03:40:37.561Z,97.20
2017-10-19T03:43:05.278Z,97.10
2017-10-19T03:45:32.906Z,97.20
2017-10-19T03:48:00.510Z,97.30
2017-10-19T03:50:28.576Z,97.30
2017-10-19T03:52:56.310Z,97.40
2017-10-19T03:55:23.999Z,97.40
2017-10-19T03:57:51.923Z,97.40
2017-10-19T04:00:19.500Z,97.30
2017-10-19T04:02:47.119Z,97.50
2017-10-19T04:05:15.472Z,97.10
2017-10-19T04:07:43.127Z,97.10
2017-10-19T04:10:10.724Z,97.00
2017-10-19T04:12:38.309Z,97.00
2017-10-19T04:15:05.971Z,97.00
2017-10-19T04:17:34.447Z,97.10
2017-10-19T04:20:02.093Z,97.20
2017-10-19T04:22:29.681Z,97.40
2017-10-19T04:24:57.285Z,97.30
2017-10-19T04:27:24.901Z,97.30
2017-10-19T04:29:52.513Z,97.20
2017-10-19T04:32:20.115Z,97.30
2017-10-19T04:34:47.719Z,97.40
2017-10-19T04:37:15.336Z,97.30
2017-10-19T04:39:42.980Z,97.40
2017-10-19T04:42:10.590Z,97.40
2017-10-19T04:44:38.961Z,97.50
2017-10-19T04:47:08.306Z,97.50
2017-10-19T04:49:35.994Z,97.50
2017-10-19T04:52:03.571Z,97.40
2017-10-19T04:54:31.163Z,97.40
2017-10-19T04:56:58.714Z,97.40
2017-10-19T04:59:27.124Z,97.20
2017-10-19T05:01:54.721Z,97.20
2017-10-19T05:04:22.317Z,97.20
2017-10-19T05:06:50.665Z,97.20
2017-10-19T05:09:18.277Z,97.20
2017-10-19T05:11:45.907Z,97.00
2017-10-19T05:14:13.511Z,97.00
2017-10-19T05:16:41.093Z,97.10
2017-10-19T05:19:08.664Z,97.10
2017-10-19T05:21:36.311Z,97.10
2017-10-19T05:24:03.907Z,97.00
2017-10-19T05:26:32.286Z,96.80
2017-10-19T05:28:59.886Z,96.80
2017-10-19T05:31:27.546Z,96.70
2017-10-19T05:33:55.133Z,96.80
2017-10-19T05:36:22.740Z,97.00
2017-10-19T05:38:51.089Z,97.00
2017-10-19T05:41:18.699Z,96.90
2017-10-19T05:43:46.339Z,97.00
2017-10-19T05:46:13.973Z,97.10
2017-10-19T05:48:42.425Z,97.20
2017-10-19T05:51:10.130Z,97.20
2017-10-19T05:53:38.507Z,97.30
2017-10-19T05:56:06.883Z,97.20
2017-10-19T05:58:35.244Z,97.20
2017-10-19T06:01:02.848Z,97.20
2017-10-19T06:03:30.435Z,97.20
2017-10-19T06:05:58.014Z,97.10
2017-10-19T06:08:25.607Z,97.00
2017-10-19T06:10:53.956Z,97.00
2017-10-19T06:13:21.567Z,97.00
2017-10-19T06:15:49.982Z,97.10
2017-10-19T06:18:17.548Z,97.10
2017-10-19T06:20:45.156Z,97.10
2017-10-19T06:23:13.489Z,97.10
2017-10-19T06:25:41.047Z,97.10
2017-10-19T06:28:08.821Z,96.90
2017-10-19T06:30:36.986Z,96.90
2017-10-19T06:33:04.591Z,96.80
2017-10-19T06:35:32.945Z,96.50
2017-10-19T06:38:01.505Z,96.50
2017-10-19T06:40:29.128Z,96.40
2017-10-19T06:42:56.821Z,96.40
2017-10-19T06:45:24.502Z,96.30
2017-10-19T06:47:52.115Z,96.20
2017-10-19T06:50:19.744Z,96.10
2017-10-19T06:52:48.091Z,96.30
2017-10-19T06:55:15.746Z,96.00
2017-10-19T06:57:43.411Z,95.90
2017-10-19T07:00:11.009Z,95.90
2017-10-19T07:02:39.403Z,95.80
2017-10-19T07:05:07.002Z,95.80
2017-10-19T07:07:34.646Z,95.80
2017-10-19T07:10:02.282Z,95.80
2017-10-19T07:12:30.644Z,95.70
2017-10-19T07:14:59.018Z,95.60
2017-10-19T07:17:26.659Z,95.60
2017-10-19T07:19:54.273Z,95.70
2017-10-19T07:22:21.921Z,95.80
2017-10-19T07:24:50.268Z,95.80
2017-10-19T07:27:17.897Z,95.80
2017-10-19T07:29:45.512Z,95.70
2017-10-19T07:32:13.900Z,95.90
2017-10-19T07:34:42.304Z,95.80
2017-10-19T07:37:09.903Z,95.80
2017-10-19T07:39:37.488Z,95.80
2017-10-19T07:42:05.053Z,95.70
2017-10-19T07:44:33.442Z,95.70
2017-10-19T07:47:01.799Z,95.50
2017-10-19T07:49:29.432Z,95.50
2017-10-19T07:51:57.056Z,95.30
2017-10-19T07:54:24.705Z,95.20
2017-10-19T07:56:53.082Z,95.10
2017-10-19T07:59:21.451Z,94.90
2017-10-19T08:01:49.866Z,94.80
2017-10-19T08:04:17.496Z,94.80
2017-10-19T08:06:45.875Z,94.90
2017-10-19T08:09:14.244Z,94.90
2017-10-19T08:11:42.631Z,94.90
2017-10-19T08:14:10.228Z,94.80
2017-10-19T08:16:37.798Z,94.80
2017-10-19T08:19:05.457Z,94.60
2017-10-19T08:21:33.047Z,94.40
2017-10-19T08:24:00.679Z,94.30
2017-10-19T08:26:28.261Z,94.30
2017-10-19T08:28:55.933Z,94.30
2017-10-19T08:31:23.568Z,94.20
2017-10-19T08:33:51.138Z,94.20
2017-10-19T08:36:19.008Z,93.90
2017-10-19T08:38:46.592Z,93.90
2017-10-19T08:41:15.626Z,93.90
2017-10-19T08:43:43.273Z,93.80
2017-10-19T08:46:11.641Z,93.80
2017-10-19T08:48:40.030Z,93.80
2017-10-19T08:51:08.413Z,93.50
2017-10-19T08:53:36.031Z,93.50
2017-10-19T08:56:03.625Z,93.60
2017-10-19T08:58:31.248Z,93.50
2017-10-19T09:00:58.845Z,93.50
2017-10-19T09:03:27.179Z,93.40
2017-10-19T09:05:54.760Z,93.40
2017-10-19T09:08:22.345Z,93.30
2017-10-19T09:10:50.739Z,93.00
2017-10-19T09:13:18.335Z,92.90
2017-10-19T09:15:45.948Z,92.70
2017-10-19T09:18:14.309Z,92.40
2017-10-19T09:20:43.290Z,92.30
2017-10-19T09:23:10.890Z,92.30
2017-10-19T09:25:38.454Z,92.10
2017-10-19T09:28:06.049Z,91.90
2017-10-19T09:30:33.704Z,91.80
2017-10-19T09:33:01.284Z,91.70
2017-10-19T09:35:28.923Z,91.70
2017-10-19T09:37:56.523Z,91.80
2017-10-19T09:40:24.112Z,91.80
2017-10-19T09:42:51.733Z,91.70
2017-10-19T09:45:19.348Z,91.60
2017-10-19T09:47:46.993Z,91.40
2017-10-19T09:50:14.629Z,91.10
2017-10-19T09:52:42.256Z,90.80
2017-10-19T09:55:09.858Z,90.70
2017-10-19T09:57:38.254Z,90.80
2017-10-19T10:00:05.817Z,90.70
2017-10-19T10:02:33.414Z,90.20
2017-10-19T10:05:01.041Z,90.20
2017-10-19T10:07:28.626Z,90.10
2017-10-19T10:09:56.402Z,89.80
2017-10-19T10:12:23.957Z,89.40
2017-10-19T10:14:51.590Z,89.60
2017-10-19T10:17:19.349Z,89.00
2017-10-19T10:19:47.000Z,89.60
2017-10-19T10:22:16.149Z,89.30
2017-10-19T10:24:44.010Z,89.30
2017-10-19T10:27:11.597Z,88.90
2017-10-19T10:29:39.240Z,88.70
2017-10-19T10:32:06.872Z,88.40
2017-10-19T10:34:34.452Z,88.40
2017-10-19T10:37:02.008Z,88.40
2017-10-19T10:39:29.612Z,87.60
2017-10-19T10:41:57.205Z,87.00
2017-10-19T10:44:24.841Z,87.00
2017-10-19T10:46:53.186Z,86.40
2017-10-19T10:49:20.772Z,86.40
2017-10-19T10:51:48.376Z,86.10
2017-10-19T10:54:15.963Z,85.60
2017-10-19T10:56:43.586Z,85.00
2017-10-19T10:59:11.192Z,84.90
2017-10-19T11:01:38.807Z,83.80
2017-10-19T11:04:06.410Z,83.70
2017-10-19T11:06:33.963Z,83.30
2017-10-19T11:09:01.590Z,82.50
2017-10-19T11:11:29.157Z,82.80
2017-10-19T11:13:56.779Z,82.50
2017-10-19T11:16:24.386Z,82.30
2017-10-19T11:18:51.949Z,81.80
2017-10-19T11:21:19.503Z,81.90
2017-10-19T11:23:47.111Z,81.70
2017-10-19T11:26:14.729Z,81.50
2017-10-19T11:28:43.081Z,80.90
2017-10-19T11:31:11.503Z,80.60
2017-10-19T11:33:39.112Z,80.40
2017-10-19T11:36:06.705Z,80.30
2017-10-19T11:38:34.271Z,81.00
2017-10-19T11:41:01.882Z,80.80
2017-10-19T11:43:29.442Z,80.50
2017-10-19T11:45:57.040Z,79.40
2017-10-19T11:48:24.651Z,79.00
2017-10-19T11:50:52.244Z,77.00
2017-10-19T11:53:19.858Z,77.30
2017-10-19T11:55:47.413Z,77.50
2017-10-19T11:58:14.970Z,77.30
2017-10-19T12:00:42.606Z,77.50
2017-10-19T12:03:10.186Z,77.30
2017-10-19T12:05:37.786Z,77.80
2017-10-19T12:08:06.112Z,78.30
2017-10-19T12:10:33.689Z,77.80
2017-10-19T12:13:02.012Z,77.60
2017-10-19T12:15:30.396Z,77.70
2017-10-19T12:17:58.744Z,78.20
2017-10-19T12:20:26.332Z,78.20
2017-10-19T12:22:54.698Z,77.20
2017-10-19T12:25:22.265Z,77.20
2017-10-19T12:27:49.882Z,76.70
2017-10-19T12:30:17.491Z,77.30
2017-10-19T12:32:45.840Z,77.40
2017-10-19T12:35:13.428Z,77.40
2017-10-19T12:37:41.788Z,77.30
2017-10-19T12:40:09.420Z,77.30
2017-10-19T12:42:37.021Z,77.00
2017-10-19T12:45:05.346Z,75.50
2017-10-19T12:47:32.959Z,75.50
2017-10-19T12:50:01.353Z,75.80
2017-10-19T12:52:28.988Z,75.80
2017-10-19T12:54:56.575Z,75.10
2017-10-19T12:57:24.924Z,75.60
2017-10-19T12:59:52.544Z,75.60
2017-10-19T13:02:20.179Z,75.30
2017-10-19T13:04:47.752Z,75.50
2017-10-19T13:07:15.317Z,75.50
2017-10-19T13:09:42.906Z,74.30
2017-10-19T13:12:10.576Z,73.80
2017-10-19T13:14:38.232Z,74.70
2017-10-19T13:17:05.816Z,73.80
2017-10-19T13:19:33.414Z,74.50
2017-10-19T13:22:01.038Z,75.00
2017-10-19T13:24:28.607Z,75.00
2017-10-19T13:26:57.021Z,74.60
2017-10-19T13:29:24.589Z,74.60
2017-10-19T13:31:52.431Z,74.50
2017-10-19T13:34:20.031Z,74.20
2017-10-19T13:36:47.593Z,74.50
2017-10-19T13:39:16.119Z,74.30
2017-10-19T13:41:44.513Z,74.00
2017-10-19T13:44:12.185Z,74.00
2017-10-19T13:46:39.793Z,73.90
2017-10-19T13:49:07.391Z,73.40
2017-10-19T13:51:34.997Z,73.90
2017-10-19T13:54:02.575Z,73.40
2017-10-19T13:56:30.166Z,73.10
2017-10-19T13:58:58.534Z,73.20
2017-10-19T14:01:26.926Z,73.00
2017-10-19T14:03:55.332Z,72.60
2017-10-19T14:06:22.930Z,72.60
2017-10-19T14:08:52.264Z,73.10
2017-10-19T14:11:19.854Z,73.00
2017-10-19T14:13:47.460Z,72.80
2017-10-19T14:16:15.126Z,73.00
2017-10-19T14:18:42.756Z,73.30
2017-10-19T14:21:10.438Z,73.10
2017-10-19T14:23:38.058Z,72.80
2017-10-19T14:26:05.730Z,73.00
2017-10-19T14:28:34.132Z,72.80
2017-10-19T14:31:01.694Z,72.80
2017-10-19T14:33:29.321Z,72.90
2017-10-19T14:35:56.925Z,73.30
2017-10-19T14:38:24.568Z,72.90
2017-10-19T14:40:52.165Z,72.80
2017-10-19T14:43:19.770Z,72.80
2017-10-19T14:45:47.394Z,73.40
2017-10-19T14:48:15.053Z,73.30
2017-10-19T14:50:42.652Z,73.20
2017-10-19T14:53:10.253Z,73.40
2017-10-19T14:55:38.730Z,73.90
2017-10-19T14:58:07.268Z,74.00
2017-10-19T15:00:34.968Z,74.00
2017-10-19T15:03:02.558Z,74.30
2017-10-19T15:05:31.022Z,74.10
2017-10-19T15:07:58.673Z,74.10
2017-10-19T15:10:26.299Z,74.30
2017-10-19T15:12:54.818Z,74.50
2017-10-19T15:15:22.694Z,74.60
2017-10-19T15:17:50.375Z,74.40
2017-10-19T15:20:18.119Z,74.60
2017-10-19T15:22:46.536Z,74.60
2017-10-19T15:25:14.189Z,74.60
2017-10-19T15:27:41.843Z,74.80
2017-10-19T15:30:09.505Z,75.20
2017-10-19T15:32:37.166Z,75.60
2017-10-19T15:35:04.803Z,75.80
2017-10-19T15:37:33.387Z,76.00
2017-10-19T15:40:01.805Z,77.60
2017-10-19T15:42:30.302Z,77.10
2017-10-19T15:44:57.903Z,77.40
2017-10-19T15:47:25.597Z,77.60
2017-10-19T15:49:53.196Z,78.10
2017-10-19T15:52:20.764Z,78.50
2017-10-19T15:54:48.415Z,79.10
2017-10-19T15:57:16.028Z,79.40
2017-10-19T15:59:44.450Z,80.50
2017-10-19T16:02:12.065Z,80.50
2017-10-19T16:04:40.461Z,81.10
2017-10-19T16:07:08.878Z,81.90
2017-10-19T16:09:36.548Z,81.90
2017-10-19T16:12:04.185Z,82.40
2017-10-19T16:14:31.768Z,82.90
2017-10-19T16:16:59.401Z,83.50
2017-10-19T16:19:26.983Z,84.20
2017-10-19T16:21:55.328Z,84.70
2017-10-19T16:24:22.978Z,85.40
2017-10-19T16:26:54.751Z,86.60
2017-10-19T16:29:22.466Z,86.50
2017-10-19T16:31:50.103Z,87.10
2017-10-19T16:34:18.512Z,87.50
2017-10-19T16:36:46.522Z,87.90
2017-10-19T16:39:14.189Z,87.90
2017-10-19T16:41:41.851Z,88.10
2017-10-19T16:44:09.570Z,88.20
2017-10-19T16:46:37.181Z,89.00
2017-10-19T16:49:04.930Z,89.80
2017-10-19T16:51:32.528Z,90.00
2017-10-19T16:54:00.139Z,89.80
2017-10-19T16:56:28.612Z,90.00
2017-10-19T16:58:57.017Z,90.00
2017-10-19T17:01:24.615Z,90.00
2017-10-19T17:03:52.249Z,90.00
2017-10-19T17:06:19.881Z,90.20
2017-10-19T17:08:49.018Z,90.30
2017-10-19T17:11:16.613Z,90.70
2017-10-19T17:13:44.191Z,90.40
2017-10-19T17:16:12.585Z,90.50
2017-10-19T17:18:40.182Z,90.40
2017-10-19T17:21:07.805Z,90.50
2017-10-19T17:23:36.174Z,90.70
2017-10-19T17:26:04.546Z,90.80
2017-10-19T17:28:32.253Z,90.80
2017-10-19T17:30:59.870Z,90.90
2017-10-19T17:33:27.473Z,91.10
2017-10-19T17:35:55.261Z,91.10
2017-10-19T17:38:22.863Z,91.50
2017-10-19T17:40:51.222Z,91.40
2017-10-19T17:43:18.861Z,91.40
2017-10-19T17:45:46.472Z,91.40
2017-10-19T17:48:14.123Z,91.70
2017-10-19T17:50:42.472Z,91.70
2017-10-19T17:53:10.077Z,91.70
2017-10-19T17:55:37.663Z,92.20
2017-10-19T17:58:05.269Z,91.90
2017-10-19T18:00:32.888Z,92.00
2017-10-19T18:03:00.500Z,92.10
2017-10-19T18:05:28.178Z,92.10
2017-10-19T18:07:55.829Z,92.60
2017-10-19T18:10:23.459Z,92.60
2017-10-19T18:12:51.084Z,92.80
2017-10-19T18:15:18.724Z,92.90
2017-10-19T18:17:47.105Z,92.80
2017-10-19T18:20:14.726Z,92.70
2017-10-19T18:22:42.309Z,92.60
2017-10-19T18:25:09.933Z,93.00
2017-10-19T18:27:37.558Z,93.10
2017-10-19T18:30:05.155Z,92.60
2017-10-19T18:32:32.776Z,92.50
2017-10-19T18:35:00.355Z,92.60
2017-10-19T18:37:27.962Z,92.50
2017-10-19T18:39:55.583Z,92.80
2017-10-19T18:42:23.205Z,92.50
2017-10-19T18:44:50.823Z,92.50
2017-10-19T18:47:18.536Z,92.60
2017-10-19T18:49:46.131Z,92.70
2017-10-19T18:52:13.739Z,93.00
2017-10-19T18:54:41.391Z,93.10
2017-10-19T18:57:09.027Z,93.00
2017-10-19T18:59:36.612Z,93.00
2017-10-19T19:02:04.354Z,93.10
2017-10-19T19:04:31.957Z,93.30
2017-10-19T19:06:59.906Z,93.30
2017-10-19T19:09:27.490Z,93.20
2017-10-19T19:11:55.095Z,93.30
2017-10-19T19:14:22.675Z,93.30
2017-10-19T19:16:50.267Z,93.40
2017-10-19T19:19:17.902Z,93.40
2017-10-19T19:21:45.563Z,93.50
2017-10-19T19:24:13.233Z,93.50
2017-10-19T19:26:40.807Z,93.50
2017-10-19T19:29:08.462Z,93.60
2017-10-19T19:31:36.069Z,93.50
2017-10-19T19:34:03.629Z,93.60
2017-10-19T19:36:31.280Z,93.60
2017-10-19T19:38:58.898Z,93.70
2017-10-19T19:41:27.284Z,93.90
2017-10-19T19:43:55.639Z,94.00
2017-10-19T19:46:23.241Z,94.00
2017-10-19T19:48:50.865Z,94.10
2017-10-19T19:51:18.474Z,94.30
2017-10-19T19:53:46.096Z,94.40
2017-10-19T19:56:13.707Z,94.30
2017-10-19T19:58:41.277Z,94.40
2017-10-19T20:01:09.682Z,94.50
2017-10-19T20:03:37.241Z,94.50
2017-10-19T20:06:04.830Z,94.40
2017-10-19T20:08:33.223Z,94.40
2017-10-19T20:11:00.838Z,94.40
2017-10-19T20:13:28.461Z,94.40
2017-10-19T20:15:56.065Z,94.50
2017-10-19T20:18:23.648Z,94.60
2017-10-19T20:20:51.297Z,94.50
2017-10-19T20:23:18.967Z,94.50
2017-10-19T20:25:47.344Z,94.40
2017-10-19T20:28:15.680Z,94.30
2017-10-19T20:30:43.269Z,94.30
2017-10-19T20:33:10.917Z,94.40
2017-10-19T20:35:38.542Z,94.40
2017-10-19T20:38:06.208Z,94.40
2017-10-19T20:40:33.837Z,94.40
2017-10-19T20:43:01.535Z,94.30
2017-10-19T20:45:29.127Z,94.30
2017-10-19T20:47:56.721Z,94.30
2017-10-19T20:50:24.949Z,94.40
2017-10-19T20:52:52.573Z,94.30
2017-10-19T20:55:20.191Z,94.20
2017-10-19T20:57:47.793Z,94.20
2017-10-19T21:00:15.396Z,94.20
2017-10-19T21:02:43.038Z,94.20
2017-10-19T21:05:10.631Z,94.20
2017-10-19T21:07:38.253Z,94.20
2017-10-19T21:10:05.821Z,94.10
2017-10-19T21:12:33.442Z,94.20
2017-10-19T21:15:01.810Z,94.20
2017-10-19T21:17:42.905Z,94.20
2017-10-19T21:20:11.241Z,94.30
2017-10-19T21:22:38.847Z,94.30
2017-10-19T21:25:06.453Z,94.40
2017-10-19T21:27:34.035Z,94.40
2017-10-19T21:30:01.635Z,94.40
2017-10-19T21:32:29.190Z,94.80
2017-10-19T21:34:56.753Z,94.40
2017-10-19T21:37:24.335Z,94.40
2017-10-19T21:39:51.946Z,94.50
2017-10-19T21:42:19.568Z,94.50
2017-10-19T21:44:47.161Z,94.60
2017-10-19T21:47:14.777Z,94.60
2017-10-19T21:49:42.356Z,94.60
2017-10-19T21:52:09.934Z,94.50
2017-10-19T21:54:37.576Z,94.60
2017-10-19T21:57:05.180Z,94.50
2017-10-19T21:59:33.547Z,94.50
2017-10-19T22:02:01.939Z,94.60
2017-10-19T22:04:30.356Z,94.70
2017-10-19T22:06:58.005Z,94.70
2017-10-19T22:09:25.631Z,94.70
2017-10-19T22:11:54.007Z,94.60
2017-10-19T22:14:21.634Z,94.60
2017-10-19T22:16:50.011Z,94.80
2017-10-19T22:19:17.642Z,94.80
2017-10-19T22:21:45.231Z,94.80
2017-10-19T22:24:13.580Z,95.00
2017-10-19T22:26:41.171Z,95.00
2017-10-19T22:29:08.752Z,95.10
2017-10-19T22:31:36.356Z,95.00
2017-10-19T22:34:03.945Z,94.90
2017-10-19T22:36:32.305Z,94.90
2017-10-19T22:38:59.892Z,94.90
2017-10-19T22:41:28.246Z,95.00
2017-10-19T22:43:55.869Z,95.10
2017-10-19T22:46:23.471Z,95.00
2017-10-19T22:48:51.819Z,95.10
2017-10-19T22:51:19.474Z,95.10
2017-10-19T22:53:47.050Z,95.10
2017-10-19T22:56:14.687Z,95.10
2017-10-19T22:58:42.244Z,95.00
2017-10-19T23:01:09.853Z,95.20
2017-10-19T23:03:37.445Z,95.20
2017-10-19T23:06:05.063Z,95.30
2017-10-19T23:08:32.734Z,95.10
2017-10-19T23:11:00.305Z,95.20
2017-10-19T23:13:28.664Z,95.40
2017-10-19T23:15:56.254Z,95.40
2017-10-19T23:18:24.613Z,95.30
2017-10-19T23:20:52.994Z,95.20
2017-10-19T23:23:22.268Z,95.50
2017-10-19T23:25:49.930Z,95.10
2017-10-19T23:28:17.531Z,95.30
2017-10-19T23:30:45.100Z,95.20
2017-10-19T23:33:12.704Z,95.20
2017-10-19T23:35:40.269Z,95.10
2017-10-19T23:38:07.851Z,95.00
2017-10-19T23:40:35.435Z,94.90
2017-10-19T23:43:02.997Z,94.70
2017-10-19T23:45:30.592Z,94.60
2017-10-19T23:47:58.215Z,94.40
2017-10-19T23:50:26.552Z,94.60
2017-10-19T23:52:54.161Z,94.60
2017-10-19T23:55:21.744Z,94.30
2017-10-19T23:57:49.365Z,94.30
